createdAt,value
2023-04-18T00:00:58.014Z,44.60
2023-04-18T00:03:27.315Z,44.50
2023-04-18T00:05:56.213Z,44.50
2023-04-18T00:08:24.412Z,44.50
2023-04-18T00:10:52.733Z,44.50
2023-04-18T00:13:20.890Z,44.50
2023-04-18T00:15:48.976Z,44.50
2023-04-18T00:18:17.421Z,44.50
2023-04-18T00:20:46.248Z,44.50
2023-04-18T00:23:14.256Z,44.50
2023-04-18T00:25:42.214Z,44.50
2023-04-18T00:28:10.083Z,44.50
2023-04-18T00:30:38.292Z,44.50
2023-04-18T00:33:06.532Z,44.50
2023-04-18T00:35:34.413Z,44.50
2023-04-18T00:38:02.219Z,44.50
2023-04-18T00:40:30.050Z,44.50
2023-04-18T00:42:58.013Z,44.50
2023-04-18T00:45:25.927Z,44.60
2023-04-18T00:47:55.741Z,44.50
2023-04-18T00:50:24.539Z,44.40
2023-04-18T00:52:53.689Z,44.50
2023-04-18T00:55:22.321Z,44.60
2023-04-18T00:57:51.308Z,44.60
2023-04-18T01:00:19.263Z,44.60
2023-04-18T01:02:49.959Z,44.60
2023-04-18T01:05:21.297Z,44.60
2023-04-18T01:07:49.690Z,44.60
2023-04-18T01:10:18.006Z,44.60
2023-04-18T01:12:45.908Z,44.60
2023-04-18T01:15:13.695Z,44.50
2023-04-18T01:17:42.453Z,44.50
2023-04-18T01:20:10.868Z,44.50
2023-04-18T01:22:41.477Z,44.50
2023-04-18T01:25:10.054Z,44.50
2023-04-18T01:27:37.803Z,44.50
2023-04-18T01:30:06.900Z,44.40
2023-04-18T01:32:37.538Z,44.50
2023-04-18T01:35:05.932Z,44.50
2023-04-18T01:37:35.762Z,44.50
2023-04-18T01:40:03.722Z,44.50
2023-04-18T01:42:31.601Z,44.40
2023-04-18T01:44:59.411Z,44.40
2023-04-18T01:47:27.134Z,44.50
2023-04-18T01:49:55.088Z,44.50
2023-04-18T01:52:22.910Z,44.40
2023-04-18T01:54:51.417Z,44.40
2023-04-18T01:57:20.014Z,44.40
2023-04-18T01:59:47.963Z,44.40
2023-04-18T02:02:16.120Z,44.40
2023-04-18T02:04:43.967Z,44.40
2023-04-18T02:07:11.873Z,44.40
2023-04-18T02:09:39.673Z,44.40
2023-04-18T02:12:07.659Z,44.40
2023-04-18T02:14:36.687Z,44.20
2023-04-18T02:17:05.281Z,44.10
2023-04-18T02:19:33.580Z,44.00
2023-04-18T02:22:02.126Z,43.90
2023-04-18T02:24:29.967Z,43.80
2023-04-18T02:26:58.324Z,43.80
2023-04-18T02:29:28.143Z,43.70
2023-04-18T02:31:56.479Z,43.70
2023-04-18T02:34:24.326Z,43.70
2023-04-18T02:36:52.245Z,43.60
2023-04-18T02:39:20.765Z,43.50
2023-04-18T02:41:50.959Z,43.40
2023-04-18T02:44:18.761Z,43.30
2023-04-18T02:46:46.567Z,43.30
2023-04-18T02:49:14.483Z,43.30
2023-04-18T02:51:43.063Z,43.30
2023-04-18T02:54:10.899Z,43.20
2023-04-18T02:56:54.906Z,43.20
2023-04-18T02:59:26.410Z,43.10
2023-04-18T03:02:12.814Z,43.10
2023-04-18T03:04:47.902Z,43.00
2023-04-18T03:07:15.901Z,43.20
2023-04-18T03:09:43.635Z,43.30
2023-04-18T03:12:22.734Z,43.60
2023-04-18T03:14:51.047Z,43.80
2023-04-18T03:17:19.372Z,43.70
2023-04-18T03:19:50.133Z,43.50
2023-04-18T03:22:21.158Z,43.60
2023-04-18T03:25:00.401Z,43.70
2023-04-18T03:28:01.501Z,43.70
2023-04-18T03:30:30.418Z,43.80
2023-04-18T03:33:03.018Z,44.00
2023-04-18T03:35:32.693Z,43.80
2023-04-18T03:38:01.373Z,43.90
2023-04-18T03:40:32.499Z,43.90
2023-04-18T03:43:07.057Z,43.80
2023-04-18T03:45:35.377Z,43.60
2023-04-18T03:48:03.881Z,43.90
2023-04-18T03:50:36.611Z,43.70
2023-04-18T03:53:07.372Z,43.70
2023-04-18T03:55:37.250Z,43.60
2023-04-18T03:58:05.813Z,43.60
2023-04-18T04:00:34.094Z,43.70
2023-04-18T04:03:07.961Z,43.80
2023-04-18T04:05:36.216Z,43.50
2023-04-18T04:08:04.537Z,43.60
2023-04-18T04:10:32.776Z,43.50
2023-04-18T04:13:01.337Z,43.50
2023-04-18T04:15:30.495Z,43.50
2023-04-18T04:18:06.683Z,43.30
2023-04-18T04:20:37.458Z,43.10
2023-04-18T04:23:12.176Z,43.10
2023-04-18T04:25:42.856Z,43.00
2023-04-18T04:28:24.135Z,43.00
2023-04-18T04:30:58.337Z,42.90
2023-04-18T04:33:29.017Z,42.90
2023-04-18T04:36:04.021Z,42.90
2023-04-18T04:38:34.132Z,42.90
2023-04-18T04:41:03.017Z,42.80
2023-04-18T04:43:32.491Z,39.10
2023-04-18T04:46:01.287Z,37.30
2023-04-18T04:48:29.598Z,36.60
2023-04-18T04:51:00.292Z,36.50
2023-04-18T04:53:32.898Z,36.90
2023-04-18T04:56:03.054Z,36.50
2023-04-18T04:58:31.576Z,36.90
2023-04-18T05:01:02.661Z,36.60
2023-04-18T05:03:33.175Z,36.80
2023-04-18T05:06:01.531Z,36.70
2023-04-18T05:08:32.090Z,37.10
2023-04-18T05:11:02.333Z,36.70
2023-04-18T05:13:31.900Z,37.10
2023-04-18T05:16:00.068Z,38.00
2023-04-18T05:18:28.142Z,38.40
2023-04-18T05:20:57.178Z,38.40
2023-04-18T05:23:25.450Z,38.40
2023-04-18T05:25:53.610Z,38.50
2023-04-18T05:28:29.456Z,38.40
2023-04-18T05:31:01.571Z,38.40
2023-04-18T05:33:33.153Z,38.70
2023-04-18T05:36:01.411Z,38.90
2023-04-18T05:38:29.582Z,39.00
2023-04-18T05:41:00.552Z,39.20
2023-04-18T05:43:28.835Z,39.40
2023-04-18T05:45:57.993Z,39.40
2023-04-18T05:48:26.417Z,39.40
2023-04-18T05:50:54.582Z,39.50
2023-04-18T05:53:22.901Z,39.60
2023-04-18T05:55:51.133Z,39.70
2023-04-18T05:58:19.039Z,39.80
2023-04-18T06:00:48.515Z,39.90
2023-04-18T06:03:16.895Z,39.90
2023-04-18T06:05:45.334Z,40.00
2023-04-18T06:08:13.617Z,40.10
2023-04-18T06:10:41.552Z,40.10
2023-04-18T06:13:09.459Z,40.20
2023-04-18T06:15:37.429Z,40.30
2023-04-18T06:18:05.558Z,40.20
2023-04-18T06:20:33.498Z,40.20
2023-04-18T06:23:01.533Z,40.30
2023-04-18T06:25:29.439Z,40.30
2023-04-18T06:27:57.450Z,40.40
2023-04-18T06:30:25.616Z,40.40
2023-04-18T06:32:53.554Z,40.40
2023-04-18T06:35:21.614Z,40.30
2023-04-18T06:37:49.658Z,40.40
2023-04-18T06:40:17.712Z,40.50
2023-04-18T06:42:46.029Z,40.60
2023-04-18T06:45:14.277Z,40.50
2023-04-18T06:47:42.195Z,40.50
2023-04-18T06:50:10.503Z,40.60
2023-04-18T06:52:40.889Z,40.50
2023-04-18T06:55:09.537Z,40.60
2023-04-18T06:57:41.696Z,40.50
2023-04-18T07:00:11.297Z,40.60
2023-04-18T07:02:40.201Z,40.60
2023-04-18T07:05:08.774Z,40.70
2023-04-18T07:07:36.716Z,41.00
2023-04-18T07:10:05.044Z,40.90
2023-04-18T07:12:33.925Z,40.90
2023-04-18T07:15:01.807Z,40.80
2023-04-18T07:17:31.536Z,40.90
2023-04-18T07:19:59.710Z,41.10
2023-04-18T07:22:27.668Z,41.10
2023-04-18T07:24:55.676Z,41.10
2023-04-18T07:27:23.586Z,41.10
2023-04-18T07:29:51.675Z,41.00
2023-04-18T07:32:19.660Z,41.10
2023-04-18T07:34:48.205Z,41.00
2023-04-18T07:37:17.695Z,41.20
2023-04-18T07:39:45.649Z,41.30
2023-04-18T07:42:13.646Z,41.30
2023-04-18T07:44:43.187Z,41.50
2023-04-18T07:47:11.489Z,41.50
2023-04-18T07:49:39.587Z,41.60
2023-04-18T07:52:07.889Z,41.70
2023-04-18T07:54:35.913Z,41.50
2023-04-18T07:57:03.981Z,41.60
2023-04-18T07:59:32.394Z,41.50
2023-04-18T08:02:00.360Z,41.60
2023-04-18T08:04:30.077Z,41.60
2023-04-18T08:06:58.620Z,41.50
2023-04-18T08:09:26.677Z,41.50
2023-04-18T08:11:56.310Z,41.50
2023-04-18T08:14:24.286Z,41.40
2023-04-18T08:16:52.361Z,41.60
2023-04-18T08:19:20.401Z,41.80
2023-04-18T08:21:52.058Z,41.90
2023-04-18T08:24:20.176Z,42.00
2023-04-18T08:26:48.114Z,42.30
2023-04-18T08:29:16.150Z,42.20
2023-04-18T08:31:44.083Z,42.30
2023-04-18T08:34:12.080Z,42.40
2023-04-18T08:36:39.982Z,42.60
2023-04-18T08:39:08.054Z,42.70
2023-04-18T08:41:40.128Z,42.90
2023-04-18T08:44:13.216Z,43.00
2023-04-18T08:46:41.988Z,43.10
2023-04-18T08:49:11.894Z,43.30
2023-04-18T08:51:41.864Z,43.30
2023-04-18T08:54:10.313Z,43.20
2023-04-18T08:56:38.239Z,43.10
2023-04-18T08:59:06.292Z,43.20
2023-04-18T09:01:56.916Z,43.00
2023-04-18T09:04:49.398Z,43.00
2023-04-18T09:07:28.413Z,43.00
2023-04-18T09:09:57.511Z,42.90
2023-04-18T09:12:27.585Z,43.20
2023-04-18T09:14:58.039Z,43.00
2023-04-18T09:17:38.446Z,43.00
2023-04-18T09:20:09.541Z,42.80
2023-04-18T09:22:52.066Z,42.90
2023-04-18T09:25:40.784Z,42.80
2023-04-18T09:28:30.399Z,42.80
2023-04-18T09:31:10.374Z,42.60
2023-04-18T09:33:41.396Z,42.60
2023-04-18T09:36:21.626Z,42.70
2023-04-18T09:38:53.681Z,42.60
2023-04-18T09:41:23.507Z,42.60
2023-04-18T09:44:15.066Z,42.60
2023-04-18T09:46:47.161Z,42.60
2023-04-18T09:49:16.984Z,42.50
2023-04-18T09:51:46.477Z,42.30
2023-04-18T09:54:18.614Z,42.50
2023-04-18T09:56:47.732Z,42.70
2023-04-18T09:59:28.686Z,42.90
2023-04-18T10:01:59.742Z,42.90
2023-04-18T10:04:31.242Z,42.90
2023-04-18T10:06:59.518Z,43.00
2023-04-18T10:09:31.639Z,43.00
2023-04-18T10:12:02.406Z,43.00
2023-04-18T10:14:33.411Z,43.00
2023-04-18T10:17:01.681Z,42.90
2023-04-18T10:19:30.474Z,43.00
2023-04-18T10:22:01.252Z,43.00
2023-04-18T10:24:48.790Z,43.00
2023-04-18T10:27:17.910Z,43.10
2023-04-18T10:29:54.094Z,43.20
2023-04-18T10:32:25.149Z,43.20
2023-04-18T10:34:56.324Z,43.30
2023-04-18T10:37:26.791Z,43.30
2023-04-18T10:39:54.646Z,43.60
2023-04-18T10:42:47.496Z,43.30
2023-04-18T10:45:22.741Z,43.40
2023-04-18T10:47:51.179Z,43.40
2023-04-18T10:50:19.158Z,43.50
2023-04-18T10:52:47.045Z,43.30
2023-04-18T10:55:24.209Z,43.30
2023-04-18T10:57:56.189Z,43.20
2023-04-18T11:00:24.951Z,43.30
2023-04-18T11:02:57.823Z,43.30
2023-04-18T11:05:28.011Z,43.30
2023-04-18T11:07:56.428Z,43.20
2023-04-18T11:10:26.934Z,43.20
2023-04-18T11:12:55.466Z,43.30
2023-04-18T11:15:25.661Z,43.30
2023-04-18T11:18:04.848Z,43.10
2023-04-18T11:20:46.090Z,43.30
2023-04-18T11:23:25.203Z,43.40
2023-04-18T11:25:56.765Z,43.60
2023-04-18T11:28:27.465Z,43.70
2023-04-18T11:30:59.726Z,43.70
2023-04-18T11:33:30.791Z,43.60
2023-04-18T11:35:59.835Z,43.50
2023-04-18T11:38:31.930Z,43.70
2023-04-18T11:41:03.220Z,43.90
2023-04-18T11:43:31.212Z,44.20
2023-04-18T11:45:59.979Z,44.20
2023-04-18T11:48:42.290Z,44.40
2023-04-18T11:51:35.521Z,44.60
2023-04-18T11:54:04.065Z,44.50
2023-04-18T11:56:33.510Z,44.30
2023-04-18T11:59:10.827Z,44.30
2023-04-18T12:01:38.827Z,44.20
2023-04-18T12:04:09.081Z,43.50
2023-04-18T12:06:51.388Z,42.10
2023-04-18T12:09:21.471Z,41.20
2023-04-18T12:12:03.330Z,42.60
2023-04-18T12:14:31.529Z,42.30
2023-04-18T12:16:59.451Z,42.30
2023-04-18T12:19:29.540Z,42.40
2023-04-18T12:22:02.210Z,42.60
2023-04-18T12:24:30.258Z,42.60
2023-04-18T12:26:59.060Z,42.80
2023-04-18T12:29:29.197Z,42.80
2023-04-18T12:31:57.210Z,42.80
2023-04-18T12:34:25.432Z,42.70
2023-04-18T12:36:54.001Z,43.00
2023-04-18T12:39:21.985Z,42.90
2023-04-18T12:41:50.141Z,43.00
2023-04-18T12:44:18.317Z,42.90
2023-04-18T12:46:46.310Z,42.60
2023-04-18T12:49:14.363Z,42.90
2023-04-18T12:51:43.722Z,42.90
2023-04-18T12:54:11.775Z,43.00
2023-04-18T12:56:40.008Z,43.00
2023-04-18T12:59:08.057Z,43.00
2023-04-18T13:01:36.385Z,43.10
2023-04-18T13:04:12.508Z,43.00
2023-04-18T13:06:41.688Z,43.10
2023-04-18T13:09:10.753Z,43.10
2023-04-18T13:11:38.718Z,43.20
2023-04-18T13:14:06.701Z,43.10
2023-04-18T13:16:34.754Z,43.10
2023-04-18T13:19:02.905Z,41.50
2023-04-18T13:21:31.469Z,42.30
2023-04-18T13:23:59.446Z,42.70
2023-04-18T13:26:27.585Z,43.20
2023-04-18T13:28:55.821Z,43.50
2023-04-18T13:31:23.861Z,43.70
2023-04-18T13:33:51.916Z,44.10
2023-04-18T13:36:19.924Z,44.60
2023-04-18T13:38:48.386Z,44.30
2023-04-18T13:41:16.505Z,44.00
2023-04-18T13:43:44.578Z,43.90
2023-04-18T13:46:12.581Z,43.60
2023-04-18T13:48:40.761Z,43.60
2023-04-18T13:51:08.844Z,43.40
2023-04-18T13:53:37.080Z,43.40
2023-04-18T13:56:05.380Z,43.30
2023-04-18T13:58:33.408Z,43.10
2023-04-18T14:01:01.917Z,43.10
2023-04-18T14:03:30.503Z,43.10
2023-04-18T14:05:59.539Z,43.00
2023-04-18T14:08:27.509Z,43.10
2023-04-18T14:10:55.566Z,43.20
2023-04-18T14:13:23.594Z,43.00
2023-04-18T14:15:54.204Z,43.20
2023-04-18T14:18:23.783Z,43.20
2023-04-18T14:20:52.109Z,43.50
2023-04-18T14:23:20.298Z,43.40
2023-04-18T14:25:48.344Z,43.40
2023-04-18T14:28:19.281Z,43.40
2023-04-18T14:30:47.202Z,43.40
2023-04-18T14:33:15.502Z,43.50
2023-04-18T14:35:44.086Z,43.60
2023-04-18T14:38:12.143Z,43.40
2023-04-18T14:40:40.185Z,43.60
2023-04-18T14:43:08.120Z,43.60
2023-04-18T14:45:36.279Z,43.50
2023-04-18T14:48:04.581Z,43.20
2023-04-18T14:50:32.583Z,43.40
2023-04-18T14:53:00.618Z,43.40
2023-04-18T14:55:28.524Z,43.50
2023-04-18T14:57:56.520Z,43.80
2023-04-18T15:00:24.706Z,44.70
2023-04-18T15:02:53.459Z,44.90
2023-04-18T15:05:23.998Z,44.70
2023-04-18T15:07:52.301Z,44.40
2023-04-18T15:10:22.566Z,44.30
2023-04-18T15:12:51.453Z,44.30
2023-04-18T15:15:19.717Z,44.30
2023-04-18T15:17:47.645Z,44.30
2023-04-18T15:20:18.343Z,44.30
2023-04-18T15:22:46.258Z,44.30
2023-04-18T15:25:16.560Z,43.90
2023-04-18T15:27:44.662Z,43.90
2023-04-18T15:30:12.950Z,43.80
2023-04-18T15:32:42.315Z,43.80
2023-04-18T15:35:11.922Z,43.90
2023-04-18T15:37:39.831Z,44.00
2023-04-18T15:40:10.561Z,43.80
2023-04-18T15:42:40.024Z,43.60
2023-04-18T15:45:08.427Z,43.60
2023-04-18T15:47:36.525Z,43.80
2023-04-18T15:50:05.300Z,43.90
2023-04-18T15:52:33.312Z,42.20
2023-04-18T15:55:01.584Z,41.30
2023-04-18T15:57:32.134Z,41.80
2023-04-18T16:00:00.223Z,42.60
2023-04-18T16:02:28.336Z,43.00
2023-04-18T16:04:56.426Z,43.00
2023-04-18T16:07:24.321Z,43.10
2023-04-18T16:09:52.258Z,43.10
2023-04-18T16:12:20.277Z,42.90
2023-04-18T16:14:48.176Z,42.80
2023-04-18T16:17:16.087Z,42.70
2023-04-18T16:19:44.321Z,43.10
2023-04-18T16:22:12.575Z,42.90
2023-04-18T16:24:42.195Z,42.80
2023-04-18T16:27:10.321Z,42.90
2023-04-18T16:29:38.315Z,42.80
2023-04-18T16:32:09.267Z,42.80
2023-04-18T16:34:37.837Z,42.80
2023-04-18T16:37:05.781Z,42.80
2023-04-18T16:39:33.701Z,42.90
2023-04-18T16:42:03.045Z,42.90
2023-04-18T16:44:31.222Z,43.00
2023-04-18T16:46:59.357Z,42.80
2023-04-18T16:49:27.401Z,42.70
2023-04-18T16:51:55.325Z,43.20
2023-04-18T16:54:23.281Z,43.10
2023-04-18T16:56:51.262Z,43.10
2023-04-18T16:59:19.203Z,43.00
2023-04-18T17:01:47.318Z,43.00
2023-04-18T17:04:15.960Z,43.00
2023-04-18T17:06:44.145Z,43.00
2023-04-18T17:09:13.904Z,42.90
2023-04-18T17:11:42.044Z,42.80
2023-04-18T17:14:10.044Z,42.80
2023-04-18T17:16:40.441Z,42.80
2023-04-18T17:19:09.300Z,42.90
2023-04-18T17:21:38.525Z,42.90
2023-04-18T17:24:07.140Z,42.80
2023-04-18T17:26:39.079Z,42.80
2023-04-18T17:29:07.104Z,42.90
2023-04-18T17:31:35.126Z,42.90
2023-04-18T17:34:03.905Z,43.00
2023-04-18T17:36:31.980Z,42.90
2023-04-18T17:39:06.727Z,42.90
2023-04-18T17:41:39.025Z,42.80
2023-04-18T17:44:10.578Z,42.80
2023-04-18T17:46:38.664Z,42.80
2023-04-18T17:49:06.720Z,42.90
2023-04-18T17:51:34.846Z,42.90
2023-04-18T17:54:03.167Z,42.90
2023-04-18T17:56:31.640Z,43.00
2023-04-18T17:58:59.637Z,43.00
2023-04-18T18:01:30.505Z,43.00
2023-04-18T18:03:58.902Z,43.00
2023-04-18T18:06:29.882Z,43.00
2023-04-18T18:08:57.820Z,43.10
2023-04-18T18:11:27.404Z,43.10
2023-04-18T18:13:57.552Z,43.10
2023-04-18T18:16:26.073Z,43.10
2023-04-18T18:18:54.100Z,43.10
2023-04-18T18:21:22.119Z,43.10
2023-04-18T18:23:50.070Z,43.10
2023-04-18T18:26:18.020Z,43.10
2023-04-18T18:28:45.918Z,43.20
2023-04-18T18:31:13.903Z,43.20
2023-04-18T18:33:41.818Z,43.20
2023-04-18T18:36:10.198Z,43.20
2023-04-18T18:38:38.122Z,43.20
2023-04-18T18:41:06.264Z,43.30
2023-04-18T18:43:34.558Z,43.30
2023-04-18T18:46:02.547Z,43.30
2023-04-18T18:48:30.622Z,43.30
2023-04-18T18:50:58.640Z,43.30
2023-04-18T18:53:26.619Z,43.30
2023-04-18T18:55:54.545Z,43.40
2023-04-18T18:58:22.696Z,43.40
2023-04-18T19:00:51.305Z,43.40
2023-04-18T19:03:21.268Z,43.40
2023-04-18T19:05:49.659Z,43.50
2023-04-18T19:08:17.353Z,43.40
2023-04-18T19:10:45.268Z,43.50
2023-04-18T19:13:13.299Z,43.50
2023-04-18T19:15:41.201Z,43.60
2023-04-18T19:18:09.340Z,43.50
2023-04-18T19:20:39.023Z,43.50
2023-04-18T19:23:06.966Z,43.60
2023-04-18T19:25:34.903Z,43.60
2023-04-18T19:28:03.520Z,43.60
2023-04-18T19:30:31.964Z,43.60
2023-04-18T19:33:00.294Z,43.60
2023-04-18T19:35:28.465Z,43.60
2023-04-18T19:38:01.619Z,43.60
2023-04-18T19:40:30.130Z,43.70
2023-04-18T19:42:58.458Z,43.70
2023-04-18T19:45:26.487Z,43.70
2023-04-18T19:47:54.576Z,43.70
2023-04-18T19:50:22.505Z,43.70
2023-04-18T19:52:50.878Z,43.70
2023-04-18T19:55:18.801Z,43.70
2023-04-18T19:57:47.809Z,43.80
2023-04-18T20:00:16.358Z,43.80
2023-04-18T20:02:44.492Z,43.80
2023-04-18T20:05:13.119Z,43.90
2023-04-18T20:07:41.873Z,43.90
2023-04-18T20:10:10.542Z,43.90
2023-04-18T20:12:38.338Z,43.80
2023-04-18T20:15:06.878Z,43.80
2023-04-18T20:17:35.042Z,43.90
2023-04-18T20:20:03.658Z,43.90
2023-04-18T20:22:32.571Z,43.80
2023-04-18T20:25:01.721Z,43.90
2023-04-18T20:27:29.690Z,43.90
2023-04-18T20:29:57.630Z,43.90
2023-04-18T20:32:26.786Z,43.90
2023-04-18T20:34:54.946Z,43.90
2023-04-18T20:37:22.855Z,43.90
2023-04-18T20:39:50.801Z,43.90
2023-04-18T20:42:18.760Z,44.00
2023-04-18T20:44:47.008Z,44.00
2023-04-18T20:47:15.932Z,44.00
2023-04-18T20:49:43.900Z,44.00
2023-04-18T20:52:11.839Z,44.10
2023-04-18T20:54:39.710Z,44.10
2023-04-18T20:57:07.949Z,44.10
2023-04-18T20:59:35.824Z,44.10
2023-04-18T21:02:03.782Z,44.00
2023-04-18T21:04:31.703Z,44.00
2023-04-18T21:06:59.663Z,44.10
2023-04-18T21:09:27.626Z,44.20
2023-04-18T21:11:55.409Z,44.20
2023-04-18T21:14:23.248Z,44.20
2023-04-18T21:16:50.989Z,44.10
2023-04-18T21:19:18.790Z,44.10
2023-04-18T21:21:46.562Z,44.20
2023-04-18T21:24:14.553Z,44.20
2023-04-18T21:26:42.725Z,44.20
2023-04-18T21:29:11.224Z,44.20
2023-04-18T21:31:39.020Z,44.20
2023-04-18T21:34:06.853Z,44.20
2023-04-18T21:36:34.792Z,44.20
2023-04-18T21:39:02.629Z,44.20
2023-04-18T21:41:30.473Z,44.20
2023-04-18T21:43:58.241Z,44.20
2023-04-18T21:46:26.170Z,44.20
2023-04-18T21:48:54.230Z,44.20
2023-04-18T21:51:22.067Z,44.20
2023-04-18T21:53:49.798Z,44.20
2023-04-18T21:56:17.687Z,44.20
2023-04-18T21:58:45.595Z,44.20
2023-04-18T22:01:13.623Z,44.20
2023-04-18T22:03:41.528Z,44.20
2023-04-18T22:06:09.543Z,44.20
2023-04-18T22:08:37.447Z,44.20
2023-04-18T22:11:05.366Z,44.20
2023-04-18T22:13:33.307Z,44.30
2023-04-18T22:16:05.080Z,44.30
2023-04-18T22:18:37.608Z,44.20
2023-04-18T22:21:06.246Z,44.20
2023-04-18T22:23:34.005Z,44.30
2023-04-18T22:26:01.950Z,44.30
2023-04-18T22:28:29.789Z,44.30
2023-04-18T22:30:57.557Z,44.30
2023-04-18T22:33:25.509Z,44.30
2023-04-18T22:35:53.349Z,44.30
2023-04-18T22:38:21.162Z,44.30
2023-04-18T22:40:48.998Z,44.30
2023-04-18T22:43:22.665Z,44.40
2023-04-18T22:45:51.291Z,44.40
2023-04-18T22:48:19.298Z,44.30
2023-04-18T22:50:47.423Z,44.30
2023-04-18T22:53:16.115Z,44.30
2023-04-18T22:55:44.803Z,44.40
2023-04-18T22:58:13.589Z,44.30
2023-04-18T23:00:41.440Z,44.30
2023-04-18T23:03:09.425Z,44.30
2023-04-18T23:05:37.392Z,44.30
2023-04-18T23:08:06.974Z,44.20
2023-04-18T23:10:35.035Z,44.40
2023-04-18T23:13:02.853Z,44.40
2023-04-18T23:15:30.698Z,44.40
2023-04-18T23:17:58.642Z,44.40
2023-04-18T23:20:26.396Z,44.40
2023-04-18T23:22:55.517Z,44.30
2023-04-18T23:25:23.334Z,44.40
2023-04-18T23:27:51.157Z,44.40
2023-04-18T23:30:18.931Z,44.40
2023-04-18T23:32:46.704Z,44.40
2023-04-18T23:35:14.481Z,44.40
2023-04-18T23:37:42.306Z,44.40
2023-04-18T23:40:10.159Z,44.40
2023-04-18T23:42:38.333Z,44.40
2023-04-18T23:45:06.557Z,44.30
2023-04-18T23:47:35.488Z,44.30
2023-04-18T23:50:03.446Z,44.40
2023-04-18T23:52:31.297Z,44.40
2023-04-18T23:55:02.325Z,44.40
2023-04-18T23:57:30.613Z,44.40
2023-04-18T23:59:58.451Z,44.50
